Flight Track Log - Related Links

Times and Time Zones

All times are in EDT time to prevent confusion due to time zone crossing. See the FDX1613 flight status page for this flight to view local times or setup timezone preferences in your user account.

Time Position Orientation Groundspeed Altitude Reporting Facility
EDT Latitude Longitude Course Direction KTS MPH feet Rate Location/Type
Thu 11:33:33 PM 39.3000 -94.7333 180° South 141 162 2,000  Level Kansas City TRACON
Thu 11:34:09 PM 39.2667 -94.7333 180° South 165 190 3,300 2,500 Climbing Kansas City TRACON
Thu 11:35:09 PM 39.2000 -94.7167 169° South 243 280 6,000 2,803 Climbing Kansas City TRACON
Thu 11:36:11 PM 39.1772 -94.6300 109° East 292 336 9,000 2,195 Climbing Kansas City Center
Thu 11:37:12 PM 39.2169 -94.5269 64° Northeast 343 395 10,500 1,902 Climbing Kansas City Center
Thu 11:38:14 PM 39.2758 -94.3817 62° Northeast 409 471 12,900 2,634 Climbing Kansas City Center
Thu 11:39:15 PM 39.3278 -94.2517 63° Northeast 420 483 15,900 2,607 Climbing Kansas City Center
Thu 11:40:16 PM 39.3678 -94.1103 70° East 444 511 18,200 2,213 Climbing Kansas City Center
Thu 11:41:17 PM 39.3903 -93.9325 81° East 447 514 20,400 2,213 Climbing Kansas City Center
Thu 11:42:18 PM 39.4092 -93.7742 81° East 461 531 22,700 2,066 Climbing Kansas City Center
Thu 11:43:19 PM 39.4314 -93.5969 81° East 473 544 24,600 1,902 Climbing Kansas City Center
Thu 11:44:21 PM 39.4519 -93.4261 81° East 481 554 26,600 1,366 Climbing Kansas City Center
Thu 11:45:22 PM 39.4736 -93.2533 81° East 487 560 27,400 1,131 Climbing Kansas City Center
Thu 11:46:23 PM 39.4947 -93.0719 81° East 507 583 28,900 1,426 Climbing Kansas City Center
Thu 11:47:24 PM 39.5161 -92.8864 81° East 522 601 30,300 1,475 Climbing Kansas City Center
Thu 11:48:25 PM 39.5353 -92.7025 82° East 522 601 31,900 1,328 Climbing Kansas City Center
Thu 11:49:26 PM 39.5597 -92.4856 82° East 521 600 33,000 541 Climbing Kansas City Center
Thu 11:50:27 PM 39.5803 -92.3031 82° East 519 597 33,000  Level Kansas City Center
Thu 11:51:29 PM 39.6003 -92.1189 82° East 520 598 33,000  Level Kansas City Center
Thu 11:52:30 PM 39.6206 -91.9303 82° East 528 608 33,000  Level Kansas City Center
Thu 11:53:31 PM 39.6414 -91.7453 82° East 528 608 33,000  Level Kansas City Center
Thu 11:54:32 PM 39.6589 -91.5619 83° East 524 603 33,000  Level Kansas City Center
Thu 11:55:33 PM 39.6789 -91.3764 82° East 524 603 33,000  Level Kansas City Center
Thu 11:56:34 PM 39.7017 -91.1594 82° East 524 603 33,000  Level Kansas City Center
Thu 11:57:35 PM 39.7183 -90.9742 83° East 522 601 33,000  Level Kansas City Center
Thu 11:58:36 PM 39.7378 -90.7956 82° East 508 585 33,000  Level Kansas City Center
Thu 11:59:37 PM 39.7542 -90.6078 83° East 502 578 33,000  Level Kansas City Center
Fri 12:00:38 AM 39.7728 -90.4286 82° East 502 578 33,000  Level Kansas City Center
Fri 12:01:39 AM 39.7886 -90.2489 83° East 502 578 33,000  Level Kansas City Center
Fri 12:02:40 AM 39.8042 -90.0689 84° East 502 578 33,000  Level Kansas City Center
Fri 12:03:41 AM 39.8206 -89.8925 83° East 501 577 33,000  Level Kansas City Center
Fri 12:04:42 AM 39.8358 -89.7161 84° East 497 572 33,000  Level Kansas City Center
Fri 12:05:43 AM 39.8400 -89.5392 88° East 494 568 33,000  Level Kansas City Center
Fri 12:06:44 AM 39.8417 -89.3642 89° East 492 566 33,000  Level Kansas City Center
Fri 12:07:45 AM 39.8433 -89.1872 89° East 490 564 33,000  Level Kansas City Center
Fri 12:08:46 AM 39.8419 -88.9747 90° East 490 564 33,000 -934 Level Kansas City Center
Fri 12:09:47 AM 39.8428 -88.7972 90° East 490 564 31,100 -2,213 Descending Kansas City Center
Fri 12:10:48 AM 39.8425 -88.6186 90° East 490 564 28,500 -2,508 Descending Kansas City Center
Fri 12:11:49 AM 39.8425 -88.4422 90° East 490 564 26,000 -2,115 Descending Kansas City Center
Fri 12:12:50 AM 39.8414 -88.2736 90° East 479 551 24,200 -909 Descending Kansas City Center
Fri 12:14:01 AM 39.8392 -88.0897 91° East 461 531 24,000 -91 Descending Indianapolis Center
Fri 12:15:02 AM 39.8383 -87.9264 90° East 455 524 24,000 -934 Level Indianapolis Center
Fri 12:16:03 AM 39.8361 -87.7636 91° East 454 522 22,100 -1,983 Descending Indianapolis Center
Fri 12:17:03 AM 39.8350 -87.6064 90° East 441 507 20,000 -1,983 Descending Indianapolis Center
Fri 12:18:04 AM 39.8333 -87.4561 91° East 425 489 18,100 -2,016 Descending Indianapolis Center
Fri 12:19:05 AM 39.8314 -87.2850 91° East 402 463 15,900 -1,770 Descending Indianapolis Center
Fri 12:20:06 AM 39.8292 -87.1475 91° East 386 444 14,500 -1,475 Descending Indianapolis Center
Fri 12:21:07 AM 39.8267 -87.0125 91° East 380 437 12,900 -1,279 Descending Indianapolis Center
Fri 12:22:08 AM 39.8247 -86.8806 91° East 373 429 11,900 -1,317 Descending Indianapolis Center
Fri 12:27:07 AM 39.8850 -86.3062 70° East 286 329 5,000 -1,319 Descending FlightAware ADS-B
Fri 12:28:12 AM 39.9160 -86.2052 68° East 283 326 3,900 -835 Descending FlightAware ADS-B
Fri 12:28:26 AM 39.9211 -86.1783 87° East 266 306 3,900  Level FlightAware ADS-B
Fri 12:28:40 AM 39.9179 -86.1587 113° Southeast 251 289 3,900  Level FlightAware ADS-B
Fri 12:28:56 AM 39.9072 -86.1394 129° Southeast 242 278 3,900 105 Level FlightAware ADS-B
Fri 12:29:37 AM 39.8833 -86.1167 129° Southeast 214 246 4,000 76 Climbing Indianapolis TRACON
Fri 12:30:15 AM 39.8558 -86.1164 180° South 212 244 4,000 -182 Level Indianapolis Center
Fri 12:31:16 AM 39.8189 -86.1514 216° Southwest 181 208 3,700 -492 Descending Indianapolis Center
Fri 12:32:17 AM 39.7944 -86.1850 227° Southwest 150 173 3,000 -595 Descending Indianapolis Center
Fri 12:33:17 AM 39.7756 -86.2083 224° Southwest 117 135 2,500 -545 Descending Indianapolis Center
Fri 12:34:18 AM 39.7569 -86.2322 225° Southwest 102 117 1,900 -590 Descending Indianapolis Center
Fri 12:35:19 AM 39.7353 -86.2594 224° Southwest 102 117 1,300 -541 Descending Indianapolis Center
Fri 12:36:20 AM 39.7083 -86.2950 225° Southwest 105 121 800 -492 Descending Indianapolis Center

Login

Don't have an account? Register now (free) for customized features, flight alerts, and more!